Wednesday, April 25, 2018, 1:03 AM EDT
Back to Local

KBWI, Baltimore-washington International

Location: Glen Burnie, MD, United States Lat: 39.167
Local Time: 1:03 AM EDT ( 5:03 GMT) Lon: -76.683
Time Zone: US/Eastern Elev: 147 ft

Show me the last for .
Show Decoded

2018-04-24 23:54 METAR KBWI 250354Z 07013KT 3SM R10/6000VP6000FT +RA BR OVC005 12/12 A2995 RMK
                 AO2 SLP142 P0010 T01220122 =
2018-04-24 22:54 METAR KBWI 250254Z 07015KT 2SM -RA BR OVC005 12/12 A3000 RMK AO2 SLP157 P0003
                 60011 T01170117 58026 =
2018-04-24 22:18 METAR KBWI 250218Z 07015KT 2SM -RA BR OVC005 12/12 A3002 RMK AO2 P0001 T01170117
                 =
2018-04-24 21:54 METAR KBWI 250154Z 06015KT 3SM -RA BR OVC006 12/12 A3004 RMK AO2 SLP170 P0002
                 T01170117 =
2018-04-24 20:54 METAR KBWI 250054Z 08013KT 4SM -RA BR BKN008 BKN017 OVC039 12/12 A3006 RMK AO2
                 SLP179 P0006 T01170117 =
2018-04-24 20:45 METAR KBWI 250045Z 08013KT 3SM -RA BR BKN008 BKN016 OVC036 12/12 A3007 RMK AO2
                 P0006 T01170117 =
2018-04-24 20:39 METAR KBWI 250039Z 08012KT 3SM -RA BR SCT008 BKN016 OVC033 12/12 A3007 RMK AO2
                 P0006 T01170117 =
2018-04-24 20:15 METAR KBWI 250015Z 09014KT 2SM RA BR FEW008 SCT012 OVC021 12/12 A3008 RMK AO2
                 P0004 T01170117 =
2018-04-24 19:54 METAR KBWI 242354Z 07012KT 2SM -RA BR SCT022 BKN027 OVC049 12/12 A3007 RMK AO2
                 SLP183 P0005 60007 T01220117 10178 20122 56010 =
2018-04-24 19:36 METAR KBWI 242336Z 08012KT 2 1/2SM -RA BR FEW030 BKN039 OVC048 13/11 A3007 RMK
                 AO2 P0002 T01280111 =
2018-04-24 18:54 METAR KBWI 242254Z 09014KT 5SM -RA BKN035 BKN047 OVC055 14/11 A3008 RMK AO2
                 SLP185 P0001 T01390111 =
2018-04-24 17:54 METAR KBWI 242154Z 09010KT 8SM -RA BKN041 BKN047 OVC075 14/11 A3009 RMK AO2
                 SLP190 P0001 T01440111 =
2018-04-24 16:54 METAR KBWI 242054Z 11012KT 10SM -RA BKN043 OVC065 16/10 A3010 RMK AO2 RAB23
                 SLP194 P0000 60000 T01610100 56032 =
2018-04-24 15:54 METAR KBWI 241954Z 12013KT 10SM BKN045 OVC065 17/09 A3013 RMK AO2 SLP203
                 T01670089 =
2018-04-24 14:54 METAR KBWI 241854Z 11015G19KT 10SM BKN042 OVC065 17/08 A3016 RMK AO2 SLP214
                 T01720083 =
2018-04-24 13:54 METAR KBWI 241754Z 12011G20KT 10SM BKN043 OVC060 17/08 A3020 RMK AO2 PK WND
                 12026/1729 SLP225 T01720078 10172 20117 57025 =
2018-04-24 12:54 METAR KBWI 241654Z 11019G23KT 10SM SCT039 BKN060 OVC100 17/08 A3022 RMK AO2
                 SLP233 T01720083 =
2018-04-24 11:54 METAR KBWI 241554Z 12016G22KT 10SM SCT039 SCT060 OVC100 17/08 A3025 RMK AO2
                 SLP243 T01670083 =
2018-04-24 10:54 METAR KBWI 241454Z 10012KT 10SM FEW042 BKN060 OVC100 16/08 A3027 RMK AO2 SLP250
                 T01560083 56010 =
2018-04-24 09:54 METAR KBWI 241354Z 09011KT 10SM FEW038 SCT060 OVC100 14/07 A3028 RMK AO2 SLP253
                 T01390072 =
2018-04-24 08:54 METAR KBWI 241254Z 10010KT 10SM FEW038 BKN060 OVC100 13/07 A3029 RMK AO2 SLP257
                 T01280067 =
2018-04-24 07:54 METAR KBWI 241154Z COR 09008KT 10SM SCT038 OVC060 12/06 A3030 RMK AO2 SLP261
                 T01170056 10117 20100 58004 =
2018-04-24 06:54 METAR KBWI 241054Z 08007KT 10SM BKN038 OVC050 12/04 A3031 RMK AO2 SLP263
                 T01170044 =
2018-04-24 05:54 METAR KBWI 240954Z 09007KT 10SM BKN046 BKN140 OVC180 11/04 A3031 RMK AO2 SLP264
                 T01060039 =
2018-04-24 04:54 METAR KBWI 240854Z 09007KT 10SM FEW100 SCT150 BKN180 11/04 A3031 RMK AO2 SLP265
                 T01060039 58009 =
2018-04-24 03:54 METAR KBWI 240754Z 09006KT 10SM SCT180 BKN240 10/03 A3033 RMK AO2 SLP270
                 T01000028 =
2018-04-24 02:54 METAR KBWI 240654Z 09006KT 10SM SCT150 OVC210 10/03 A3033 RMK AO2 SLP269
                 T01000028 =
2018-04-24 01:54 METAR KBWI 240554Z 10004KT 10SM SCT150 OVC210 11/02 A3034 RMK AO2 SLP274
                 T01110017 10161 20100 58011 =

Support USWX by starting your Amazon purchase here.